Terminal Aerodrome Forecast
Issued by NWS Louisville, KY

Home | Current Version | Previous Version | Text Only | Print | Product List | Glossary On
Versions: 1 2 3 4 5 6 7 8 9 10 11 12 13 14 15 16 17 18 19
000
FTUS43 KLMK 270200 AAA
TAFLEX
TAF AMD
KLEX 270213Z 2702/2724 19012KT P6SM SCT050 BKN200
     FM270300 23012KT P6SM VCTS SCT015 BKN035CB
      TEMPO 2704/2706 30015G30KT 3SM -TSRA BKN025CB
     FM270600 20008KT P6SM VCTS BKN040CB
     FM271300 24015G24KT P6SM SCT040 BKN120=

USA.gov is the U.S. government's official web portal to all federal, state and local government web resources and services.